Time;durP1;ratioP1;P1;durP2;ratioP2;P2;SDS_P1;SDS_P2;PMS_P1;PMS_P2;Temp;Humidity;BMP_temperature;BMP_pressure;BME280_temperature;BME280_humidity;BME280_pressure;Samples;Min_cycle;Max_cycle;Signal;HPM_P1;HPM_P2
2022/08/04 00:00:18;;;;;;;11.80;9.17;;;23.80;1.00;;;;;;5097015;28;20460;-76
2022/08/04 00:03:02;;;;;;;9.93;8.87;;;23.80;1.00;;;;;;5097142;28;20456;-76
2022/08/04 00:05:40;;;;;;;9.67;8.77;;;23.80;1.00;;;;;;5097055;28;21009;-76
2022/08/04 00:08:15;;;;;;;10.23;9.03;;;23.70;1.00;;;;;;5096856;28;20832;-76
2022/08/04 00:10:49;;;;;;;10.30;9.40;;;23.70;1.00;;;;;;5104984;22;20500;-74
2022/08/04 00:13:22;;;;;;;9.80;8.80;;;23.60;1.00;;;;;;5076506;28;20798;-74
2022/08/04 00:15:52;;;;;;;9.50;8.70;;;23.60;1.00;;;;;;5076237;28;20923;-74
2022/08/04 00:18:26;;;;;;;11.27;10.17;;;23.60;1.00;;;;;;5076366;28;20828;-75
2022/08/04 00:20:59;;;;;;;9.17;8.27;;;23.60;1.00;;;;;;5076635;28;20484;-75
2022/08/04 00:23:27;;;;;;;9.57;8.67;;;23.50;1.00;;;;;;5076380;28;20440;-74
2022/08/04 00:25:55;;;;;;;11.77;9.40;;;23.40;8.00;;;;;;5076059;28;20940;-74
2022/08/04 00:28:21;;;;;;;10.67;9.57;;;23.50;1.00;;;;;;5076341;28;20444;-75
2022/08/04 00:30:49;;;;;;;10.40;9.40;;;23.50;1.00;;;;;;5076067;28;20476;-74
2022/08/04 00:33:20;;;;;;;9.87;8.97;;;23.50;1.00;;;;;;5076147;28;20448;-74
2022/08/04 00:35:48;;;;;;;11.70;9.47;;;23.10;4.90;;;;;;5076128;28;20792;-74
2022/08/04 00:38:16;;;;;;;9.90;8.97;;;23.50;1.00;;;;;;5076047;28;20472;-74
2022/08/04 00:40:50;;;;;;;13.70;8.47;;;23.50;1.00;;;;;;5076015;28;20551;-74
2022/08/04 00:43:31;;;;;;;8.93;8.10;;;23.60;1.00;;;;;;5076010;28;20768;-74
2022/08/04 00:46:19;;;;;;;10.63;9.30;;;23.60;1.00;;;;;;5075959;28;20464;-74
2022/08/04 00:49:02;;;;;;;7.07;6.37;;;23.60;1.00;;;;;;5075793;28;20425;-74
2022/08/04 00:51:43;;;;;;;8.97;8.20;;;23.60;1.00;;;;;;5075817;28;20827;-74
2022/08/04 00:54:17;;;;;;;10.40;9.50;;;23.60;1.00;;;;;;5075845;28;20784;-74
2022/08/04 00:57:19;;;;;;;9.80;8.00;;;23.60;1.00;;;;;;5075811;28;20435;-74
2022/08/04 01:00:05;;;;;;;8.43;7.63;;;23.50;1.00;;;;;;5035865;28;21052;-74
2022/08/04 01:02:37;;;;;;;9.03;8.20;;;23.40;16.00;;;;;;5076393;28;20440;-74
2022/08/04 01:05:13;;;;;;;7.77;7.07;;;23.40;1.00;;;;;;5076294;28;20456;-74
2022/08/04 01:08:04;;;;;;;7.53;6.67;;;23.30;1.00;;;;;;5076196;28;20425;-74
2022/08/04 01:10:47;;;;;;;8.47;7.70;;;23.30;7.70;;;;;;5075512;28;20480;-74
2022/08/04 01:13:32;;;;;;;7.90;7.10;;;23.20;22.30;;;;;;5075413;28;20468;-74
2022/08/04 01:16:02;;;;;;;8.17;7.37;;;23.20;1.00;;;;;;5074982;28;20900;-75
2022/08/04 01:18:35;;;;;;;8.50;7.60;;;23.20;28.20;;;;;;5075529;28;20522;-74
2022/08/04 01:21:30;;;;;;;10.03;8.60;;;23.20;2.20;;;;;;5075077;28;20858;-75
2022/08/04 01:24:25;;;;;;;7.93;7.27;;;23.30;1.00;;;;;;5074865;28;20506;-74
2022/08/04 01:26:57;;;;;;;11.40;8.00;;;23.30;1.00;;;;;;5075135;28;20433;-74
2022/08/04 01:29:27;;;;;;;8.43;7.83;;;23.30;1.00;;;;;;5075069;28;20417;-74
2022/08/04 01:32:03;;;;;;;8.63;7.83;;;23.20;25.40;;;;;;5075076;28;20559;-74
2022/08/04 01:34:35;;;;;;;9.20;8.30;;;23.10;58.50;;;;;;5075151;28;20432;-74
2022/08/04 01:37:09;;;;;;;11.43;7.80;;;23.10;53.90;;;;;;5075101;28;20437;-74
2022/08/04 01:39:42;;;;;;;8.73;7.90;;;23.10;48.80;;;;;;5074634;28;20433;-75
2022/08/04 01:42:10;;;;;;;8.97;8.17;;;23.00;83.00;;;;;;5074668;28;20441;-74
2022/08/04 01:44:40;;;;;;;7.93;7.17;;;22.90;99.90;;;;;;5074908;28;20441;-75
2022/08/04 01:47:08;;;;;;;8.37;7.70;;;22.90;97.40;;;;;;5075694;28;20440;-74
2022/08/04 01:49:38;;;;;;;9.07;8.27;;;22.90;99.90;;;;;;5074750;28;20472;-74
2022/08/04 01:52:08;;;;;;;10.63;9.17;;;22.90;99.20;;;;;;5074794;28;20514;-74
2022/08/04 01:54:40;;;;;;;8.87;8.07;;;22.90;99.90;;;;;;5074817;28;20460;-74
2022/08/04 01:57:09;;;;;;;8.20;7.40;;;22.80;99.90;;;;;;5074718;28;20421;-74
2022/08/04 01:59:40;;;;;;;10.70;7.00;;;22.80;95.50;;;;;;5074588;28;20526;-74
2022/08/04 02:02:06;;;;;;;8.40;7.60;;;22.80;95.80;;;;;;5074471;28;20539;-74
2022/08/04 02:04:35;;;;;;;10.87;9.20;;;22.70;99.90;;;;;;5074597;28;20811;-74
2022/08/04 02:07:35;;;;;;;8.13;7.43;;;22.70;99.90;;;;;;5074419;28;20455;-74
2022/08/04 02:10:05;;;;;;;8.43;7.63;;;22.70;99.90;;;;;;5074282;28;20451;-74
2022/08/04 02:12:58;;;;;;;8.93;7.80;;;22.70;99.90;;;;;;5074326;28;20483;-75
2022/08/04 02:15:32;;;;;;;7.80;7.00;;;22.60;99.90;;;;;;5074150;28;20436;-75
2022/08/04 02:18:05;;;;;;;9.10;7.37;;;22.60;99.90;;;;;;5074146;28;20473;-75
2022/08/04 02:20:35;;;;;;;10.60;9.50;;;22.60;99.90;;;;;;5073109;28;20471;-75
2022/08/04 02:23:04;;;;;;;8.53;7.83;;;22.50;99.90;;;;;;5074124;28;20473;-74
2022/08/04 02:25:36;;;;;;;7.87;6.70;;;22.50;99.90;;;;;;5074048;28;20481;-74
2022/08/04 02:28:21;;;;;;;7.37;6.70;;;22.50;99.90;;;;;;5073992;28;20818;-74
2022/08/04 02:31:03;;;;;;;8.70;7.30;;;22.40;99.90;;;;;;5073983;28;20471;-74
2022/08/04 02:33:35;;;;;;;8.67;7.87;;;22.30;99.90;;;;;;5073862;28;20433;-75
2022/08/04 02:36:04;;;;;;;8.37;7.57;;;22.30;99.90;;;;;;5073979;28;20767;-75
2022/08/04 02:38:47;;;;;;;7.90;7.20;;;22.30;99.90;;;;;;5073747;28;20845;-74
2022/08/04 02:41:16;;;;;;;10.90;8.10;;;22.30;99.90;;;;;;5073340;28;20983;-74
2022/08/04 02:43:47;;;;;;;7.90;7.20;;;22.20;99.90;;;;;;5074317;28;20451;-74
2022/08/04 02:46:17;;;;;;;7.73;7.07;;;22.10;99.90;;;;;;5074276;28;20777;-74
2022/08/04 02:48:46;;;;;;;7.23;6.27;;;22.10;99.90;;;;;;5073603;28;20440;-74
2022/08/04 02:51:15;;;;;;;7.50;6.80;;;21.90;99.90;;;;;;5073641;28;20477;-74
2022/08/04 02:53:44;;;;;;;8.53;7.80;;;21.90;99.90;;;;;;5073589;28;20445;-74
2022/08/04 02:56:14;;;;;;;8.27;7.57;;;21.90;99.90;;;;;;5073525;28;20453;-74
2022/08/04 02:58:46;;;;;;;15.00;8.20;;;22.00;99.90;;;;;;5073380;28;20480;-74
2022/08/04 03:01:13;;;;;;;8.37;7.20;;;22.00;99.90;;;;;;5073326;28;20590;-75
2022/08/04 03:03:51;;;;;;;9.27;7.30;;;22.00;99.90;;;;;;5073634;28;20433;-75
2022/08/04 03:06:43;;;;;;;7.93;7.20;;;22.00;99.90;;;;;;5073551;28;20444;-75
2022/08/04 03:09:30;;;;;;;8.50;7.60;;;22.00;99.90;;;;;;5072914;28;20432;-74
2022/08/04 03:12:23;;;;;;;10.67;8.57;;;22.00;1.00;;;;;;5072895;28;20473;-73
2022/08/04 03:15:17;;;;;;;8.00;7.33;;;22.00;99.90;;;;;;5073295;28;20432;-73
2022/08/04 03:18:15;;;;;;;7.47;6.87;;;21.90;1.00;;;;;;5072981;28;20951;-73
2022/08/04 03:21:13;;;;;;;7.83;7.13;;;21.80;1.00;;;;;;5073076;28;20461;-73
2022/08/04 03:24:07;;;;;;;8.07;7.30;;;21.80;1.00;;;;;;5073726;28;20425;-74
2022/08/04 03:27:02;;;;;;;8.90;8.10;;;21.70;1.00;;;;;;5073769;28;20486;-74
2022/08/04 03:29:59;;;;;;;7.53;6.93;;;21.70;1.00;;;;;;5073069;28;20483;-73
2022/08/04 03:33:09;;;;;;;8.17;7.37;;;21.70;1.00;;;;;;5072656;28;20823;-74
2022/08/04 03:36:06;;;;;;;8.03;7.20;;;21.60;1.00;;;;;;5073362;28;20417;-74
2022/08/04 03:38:55;;;;;;;8.80;8.00;;;21.60;1.00;;;;;;5073812;28;20469;-75
2022/08/04 03:41:39;;;;;;;9.63;8.17;;;21.60;1.00;;;;;;5073060;28;20471;-74
2022/08/04 03:44:39;;;;;;;8.70;7.80;;;21.50;1.00;;;;;;5072786;28;20941;-74
2022/08/04 03:47:27;;;;;;;8.37;7.67;;;21.50;1.00;;;;;;5073071;28;20433;-74
2022/08/04 03:50:27;;;;;;;10.70;8.47;;;21.10;99.90;;;;;;5072861;28;20425;-74
2022/08/04 03:53:19;;;;;;;8.50;7.80;;;21.40;93.80;;;;;;5066084;28;20464;-74
2022/08/04 03:56:34;;;;;;;8.10;7.30;;;21.50;97.50;;;;;;5072979;28;20424;-74
2022/08/04 03:59:25;;;;;;;8.33;7.50;;;21.50;99.90;;;;;;5072481;28;21006;-74
2022/08/04 04:02:08;;;;;;;8.77;7.97;;;21.40;99.90;;;;;;5018313;28;20469;-74
2022/08/04 04:04:59;;;;;;;9.30;8.50;;;21.30;99.90;;;;;;5072876;28;20900;-74
2022/08/04 04:08:05;;;;;;;8.60;8.00;;;21.40;99.90;;;;;;5072406;28;20432;-74
2022/08/04 04:10:51;;;;;;;9.77;8.77;;;21.50;99.90;;;;;;5072292;28;20468;-74
2022/08/04 04:13:44;;;;;;;10.20;8.83;;;21.60;99.90;;;;;;5072809;28;20436;-74
2022/08/04 04:16:34;;;;;;;11.93;8.70;;;21.70;98.10;;;;;;5072636;28;20437;-74
2022/08/04 04:19:22;;;;;;;10.53;9.30;;;21.70;99.90;;;;;;5069309;28;20570;-74
2022/08/04 04:22:13;;;;;;;9.60;8.77;;;21.70;99.90;;;;;;5072513;28;20488;-74
2022/08/04 04:25:00;;;;;;;9.60;8.80;;;21.70;99.90;;;;;;5072157;28;20918;-74
2022/08/04 04:27:39;;;;;;;11.33;9.80;;;21.80;99.90;;;;;;5072153;28;20452;-74
2022/08/04 04:30:16;;;;;;;13.50;9.57;;;21.80;99.90;;;;;;5072258;28;20563;-74
2022/08/04 04:33:07;;;;;;;12.27;9.33;;;21.70;99.90;;;;;;5072611;28;20436;-74
2022/08/04 04:35:40;;;;;;;9.17;8.37;;;21.80;1.00;;;;;;5072168;28;20913;-74
2022/08/04 04:38:29;;;;;;;12.77;9.80;;;21.80;8.70;;;;;;5072312;28;20448;-74
2022/08/04 04:41:05;;;;;;;10.90;9.97;;;21.90;1.00;;;;;;5072721;28;20464;-75
2022/08/04 04:43:54;;;;;;;10.90;9.90;;;22.00;1.00;;;;;;5072971;28;20468;-76
2022/08/04 04:46:34;;;;;;;10.40;9.50;;;22.00;1.00;;;;;;5075997;28;20788;-74
2022/08/04 04:49:08;;;;;;;11.87;10.67;;;22.10;1.00;;;;;;5075872;28;20769;-74
2022/08/04 04:51:42;;;;;;;11.20;10.10;;;22.10;1.00;;;;;;5075827;28;20459;-74
2022/08/04 04:54:19;;;;;;;10.67;9.57;;;22.10;1.00;;;;;;5075896;28;20424;-74
2022/08/04 04:56:53;;;;;;;10.30;9.27;;;22.10;1.00;;;;;;5076611;28;20424;-74
2022/08/04 04:59:24;;;;;;;11.73;10.53;;;22.10;1.00;;;;;;5075453;28;20991;-74
2022/08/04 05:02:13;;;;;;;10.93;10.00;;;22.10;1.00;;;;;;5075613;28;20468;-74
2022/08/04 05:05:11;;;;;;;17.50;11.53;;;22.20;1.00;;;;;;5075720;28;20441;-74
2022/08/04 05:08:24;;;;;;;17.43;10.77;;;22.20;1.00;;;;;;5055618;28;20451;-74
2022/08/04 05:11:06;;;;;;;11.37;10.33;;;22.40;1.00;;;;;;5075566;28;20475;-74
2022/08/04 05:13:36;;;;;;;11.37;10.43;;;22.40;1.00;;;;;;5075417;28;20969;-74
2022/08/04 05:16:10;;;;;;;15.37;10.40;;;22.40;1.00;;;;;;5075936;28;20445;-76
2022/08/04 05:18:41;;;;;;;10.77;9.80;;;22.50;1.00;;;;;;5075505;28;20880;-75
2022/08/04 05:21:19;;;;;;;11.50;9.83;;;22.50;1.00;;;;;;5075319;28;20480;-75
2022/08/04 05:23:51;;;;;;;13.77;10.77;;;22.50;1.00;;;;;;5075323;28;20451;-75
2022/08/04 05:26:23;;;;;;;9.70;8.90;;;22.60;1.00;;;;;;5075144;28;20519;-75
2022/08/04 05:28:55;;;;;;;11.37;10.27;;;22.60;1.00;;;;;;5075486;28;20444;-75
2022/08/04 05:31:26;;;;;;;12.10;10.57;;;22.70;99.90;;;;;;5074767;28;20472;-75
2022/08/04 05:33:58;;;;;;;10.63;9.53;;;22.70;99.90;;;;;;5075245;28;20870;-75
2022/08/04 05:36:43;;;;;;;11.77;10.57;;;22.80;99.90;;;;;;5075153;28;20421;-75
2022/08/04 05:39:14;;;;;;;11.30;10.33;;;22.80;99.90;;;;;;5074450;28;20465;-75
2022/08/04 05:41:42;;;;;;;15.13;10.50;;;22.90;99.90;;;;;;5074668;28;20472;-75
2022/08/04 05:44:10;;;;;;;10.33;9.53;;;22.90;99.90;;;;;;5074526;28;20453;-75
2022/08/04 05:46:37;;;;;;;14.00;9.80;;;23.00;99.90;;;;;;5074301;28;20448;-75
2022/08/04 05:49:08;;;;;;;11.40;10.20;;;23.10;99.90;;;;;;5074229;28;20449;-75
2022/08/04 05:51:36;;;;;;;10.47;9.50;;;23.10;99.90;;;;;;5074024;28;20476;-75
2022/08/04 05:54:03;;;;;;;12.00;10.00;;;23.20;99.90;;;;;;5074610;28;20444;-75
2022/08/04 05:56:32;;;;;;;12.33;10.00;;;23.30;99.90;;;;;;5074523;28;20476;-75
2022/08/04 05:59:00;;;;;;;10.37;9.37;;;23.40;99.90;;;;;;5074398;28;20572;-75
2022/08/04 06:01:29;;;;;;;10.73;9.63;;;23.40;99.90;;;;;;5074362;28;20465;-75
2022/08/04 06:03:56;;;;;;;10.93;9.93;;;23.50;1.00;;;;;;5074479;28;20448;-75
2022/08/04 06:06:25;;;;;;;11.30;10.20;;;23.60;1.00;;;;;;5074366;28;20460;-75
2022/08/04 06:08:53;;;;;;;11.90;10.30;;;23.60;1.00;;;;;;5074999;28;20441;-75
2022/08/04 06:11:20;;;;;;;11.10;10.00;;;23.70;1.00;;;;;;5074112;28;20488;-73
2022/08/04 06:13:53;;;;;;;14.20;12.80;;;23.80;45.20;;;;;;5074244;28;20449;-74
2022/08/04 06:16:23;;;;;;;17.70;15.90;;;23.90;1.00;;;;;;5074114;28;20437;-75
2022/08/04 06:18:53;;;;;;;22.60;18.13;;;24.00;1.00;;;;;;5074294;28;20456;-74
2022/08/04 06:21:22;;;;;;;13.50;12.10;;;24.00;1.00;;;;;;5074297;28;20496;-74
2022/08/04 06:23:52;;;;;;;11.73;10.63;;;24.10;99.90;;;;;;5073640;28;20453;-74
2022/08/04 06:26:20;;;;;;;11.43;10.23;;;24.20;1.00;;;;;;5073608;28;20962;-75
2022/08/04 06:28:49;;;;;;;12.17;10.40;;;24.30;1.00;;;;;;5073977;28;20460;-75
2022/08/04 06:31:30;;;;;;;12.23;10.70;;;24.40;1.00;;;;;;5073435;28;20468;-75
2022/08/04 06:34:01;;;;;;;13.00;11.80;;;24.50;1.00;;;;;;5074008;28;20446;-75
2022/08/04 06:36:29;;;;;;;15.70;11.60;;;24.60;1.00;;;;;;5073874;28;20433;-76
2022/08/04 06:38:58;;;;;;;12.23;10.40;;;24.60;99.90;;;;;;5073358;28;20535;-75
2022/08/04 06:41:25;;;;;;;11.47;10.40;;;24.70;99.90;;;;;;5073405;28;20479;-74
2022/08/04 06:43:52;;;;;;;8.83;8.03;;;24.80;99.90;;;;;;5073422;28;20449;-75
2022/08/04 06:46:19;;;;;;;12.30;10.77;;;24.90;99.90;;;;;;5073475;28;20830;-75
2022/08/04 06:48:47;;;;;;;18.67;15.50;;;25.00;99.90;;;;;;5073286;28;20444;-74
2022/08/04 06:51:15;;;;;;;13.53;12.20;;;25.00;99.90;;;;;;5073449;28;20460;-74
2022/08/04 06:53:42;;;;;;;10.07;9.07;;;25.10;99.90;;;;;;5073385;28;20472;-75
2022/08/04 06:56:11;;;;;;;9.90;8.90;;;25.20;99.90;;;;;;5074195;28;20448;-74
2022/08/04 06:58:39;;;;;;;8.53;7.83;;;25.30;60.00;;;;;;5074379;28;21030;-75
2022/08/04 07:01:07;;;;;;;9.90;8.80;;;25.30;94.90;;;;;;5073133;28;20953;-74
2022/08/04 07:03:34;;;;;;;11.27;8.13;;;25.40;64.00;;;;;;5073235;28;20453;-74
2022/08/04 07:06:02;;;;;;;9.37;7.07;;;25.50;1.00;;;;;;5072722;28;20449;-74
2022/08/04 07:08:29;;;;;;;7.97;7.17;;;25.50;1.00;;;;;;5073038;28;20854;-74
2022/08/04 07:10:57;;;;;;;9.00;7.50;;;25.60;1.00;;;;;;5072995;28;20469;-74
2022/08/04 07:13:27;;;;;;;8.93;8.23;;;25.80;1.00;;;;;;5072962;28;20449;-74
2022/08/04 07:15:55;;;;;;;15.63;9.17;;;25.90;1.00;;;;;;5073114;28;20918;-74
2022/08/04 07:18:22;;;;;;;7.83;6.90;;;26.00;1.00;;;;;;5073280;28;20475;-74
2022/08/04 07:20:55;;;;;;;7.23;6.60;;;26.10;1.00;;;;;;5073053;28;20504;-74
2022/08/04 07:23:25;;;;;;;6.90;6.30;;;26.10;1.00;;;;;;5072847;28;20441;-74
2022/08/04 07:25:53;;;;;;;7.97;7.27;;;26.10;1.00;;;;;;5073609;28;20449;-75
2022/08/04 07:28:21;;;;;;;9.17;8.27;;;26.20;1.00;;;;;;5072882;28;20448;-74
2022/08/04 07:30:49;;;;;;;8.80;7.80;;;26.30;1.00;;;;;;5072719;28;20468;-74
2022/08/04 07:33:17;;;;;;;7.57;6.87;;;26.30;1.00;;;;;;5073127;28;20531;-75
2022/08/04 07:35:45;;;;;;;7.63;6.30;;;26.40;1.00;;;;;;5072818;28;20539;-75
2022/08/04 07:38:12;;;;;;;9.73;6.27;;;26.40;1.00;;;;;;5072943;28;20453;-75
2022/08/04 07:40:39;;;;;;;7.40;5.80;;;26.50;1.00;;;;;;5072490;28;20576;-75
2022/08/04 07:43:06;;;;;;;7.40;6.67;;;26.60;1.00;;;;;;5072578;28;20452;-74
2022/08/04 07:45:33;;;;;;;8.00;7.17;;;26.70;1.00;;;;;;5073166;28;20456;-75
2022/08/04 07:48:04;;;;;;;7.17;6.57;;;27.10;1.00;;;;;;5072811;28;20445;-75
2022/08/04 07:50:32;;;;;;;8.57;6.47;;;26.80;1.00;;;;;;5073132;28;20472;-74
2022/08/04 07:52:59;;;;;;;7.30;6.70;;;26.80;1.00;;;;;;5074384;28;20505;-74
2022/08/04 07:55:27;;;;;;;7.70;6.30;;;26.90;1.00;;;;;;5072751;28;20823;-75
2022/08/04 07:57:54;;;;;;;7.43;6.73;;;26.90;1.00;;;;;;5072502;28;20954;-76
2022/08/04 08:00:21;;;;;;;6.20;5.73;;;27.00;1.00;;;;;;5072671;28;20484;-75
2022/08/04 08:02:50;;;;;;;6.67;5.90;;;27.10;1.00;;;;;;5072969;28;20784;-75
2022/08/04 08:05:20;;;;;;;7.07;6.47;;;27.10;1.00;;;;;;5072740;28;20455;-76
2022/08/04 08:07:47;;;;;;;6.13;5.70;;;27.20;1.00;;;;;;5072776;28;20457;-76
2022/08/04 08:10:17;;;;;;;6.40;5.67;;;27.20;1.00;;;;;;5072738;28;20599;-75
2022/08/04 08:12:45;;;;;;;6.67;6.10;;;27.30;1.00;;;;;;5073709;28;20872;-74
2022/08/04 08:15:12;;;;;;;6.90;6.27;;;27.40;1.00;;;;;;5072717;28;20449;-74
2022/08/04 08:17:39;;;;;;;7.20;6.60;;;27.40;1.00;;;;;;5072637;28;20453;-73
2022/08/04 08:20:08;;;;;;;6.30;5.70;;;27.50;1.00;;;;;;5075651;28;20484;-74
2022/08/04 08:22:37;;;;;;;6.47;5.90;;;27.50;1.00;;;;;;5076326;28;20448;-75
2022/08/04 08:25:05;;;;;;;7.53;6.83;;;27.50;1.00;;;;;;5076288;28;20455;-75
2022/08/04 08:27:32;;;;;;;8.77;5.70;;;27.60;1.00;;;;;;5076254;28;20886;-75
2022/08/04 08:29:59;;;;;;;8.73;7.93;;;28.20;1.00;;;;;;5076633;28;20461;-75
2022/08/04 08:32:27;;;;;;;10.97;9.07;;;27.80;1.00;;;;;;5076297;28;20489;-75
2022/08/04 08:34:54;;;;;;;7.37;6.77;;;27.90;1.00;;;;;;5076325;28;20448;-75
2022/08/04 08:37:28;;;;;;;9.70;8.70;;;28.00;1.00;;;;;;5075925;28;20787;-75
2022/08/04 08:40:09;;;;;;;17.07;15.33;;;28.10;1.00;;;;;;5075656;28;20464;-74
2022/08/04 08:43:00;;;;;;;13.03;11.83;;;28.20;1.00;;;;;;5076069;28;20429;-75
2022/08/04 08:45:51;;;;;;;32.37;28.87;;;28.50;1.00;;;;;;5075897;28;20425;-75
2022/08/04 08:48:36;;;;;;;34.63;31.13;;;28.30;1.00;;;;;;5076573;28;20433;-74
2022/08/04 08:51:30;;;;;;;30.40;27.20;;;28.40;1.00;;;;;;5075541;28;20514;-74
2022/08/04 08:54:21;;;;;;;18.23;16.33;;;28.50;1.00;;;;;;5060008;28;20452;-75
2022/08/04 08:56:57;;;;;;;20.30;18.40;;;28.60;1.00;;;;;;5075470;28;20447;-76
2022/08/04 08:59:46;;;;;;;17.67;15.90;;;28.80;1.00;;;;;;5075781;28;20425;-74
2022/08/04 09:02:48;;;;;;;9.67;8.07;;;28.60;1.00;;;;;;5076077;28;20425;-74
2022/08/04 09:05:28;;;;;;;8.03;7.20;;;28.60;1.00;;;;;;5075686;28;20424;-74
2022/08/04 09:08:15;;;;;;;10.93;8.27;;;28.70;1.00;;;;;;5076208;28;20794;-74
2022/08/04 09:10:47;;;;;;;6.13;5.73;;;28.80;1.00;;;;;;5075638;28;20484;-74
2022/08/04 09:13:23;;;;;;;8.20;6.53;;;28.90;1.00;;;;;;5075427;28;20436;-76
2022/08/04 09:16:02;;;;;;;6.27;5.70;;;29.00;1.00;;;;;;5075429;28;20808;-74
2022/08/04 09:18:36;;;;;;;7.90;5.77;;;29.10;99.90;;;;;;5075386;28;20433;-74
2022/08/04 09:21:12;;;;;;;6.17;5.57;;;29.20;1.00;;;;;;5074894;28;20494;-75
2022/08/04 09:23:48;;;;;;;7.43;6.80;;;29.30;99.90;;;;;;5075589;28;20782;-74
2022/08/04 09:26:21;;;;;;;7.97;7.30;;;29.30;99.90;;;;;;5075435;28;20845;-74
2022/08/04 09:28:55;;;;;;;5.73;5.33;;;29.40;99.90;;;;;;5075375;28;20437;-74
2022/08/04 09:31:29;;;;;;;6.83;6.13;;;29.40;99.90;;;;;;5074997;28;20460;-74
2022/08/04 09:34:11;;;;;;;6.00;5.50;;;29.40;99.90;;;;;;5075272;28;20425;-74
2022/08/04 09:36:46;;;;;;;8.50;5.83;;;29.50;99.90;;;;;;5075192;28;20439;-74
2022/08/04 09:39:24;;;;;;;6.27;5.50;;;29.60;99.90;;;;;;5075261;28;20429;-74
2022/08/04 09:42:01;;;;;;;8.43;6.20;;;29.70;99.90;;;;;;5074631;28;20494;-74
2022/08/04 09:44:40;;;;;;;10.37;6.83;;;29.70;99.90;;;;;;5075639;28;20896;-74
2022/08/04 09:47:19;;;;;;;6.40;5.80;;;29.70;99.90;;;;;;5075231;28;20777;-74
2022/08/04 09:49:55;;;;;;;6.10;5.60;;;29.90;99.90;;;;;;5074634;28;20432;-74
2022/08/04 09:52:32;;;;;;;5.60;5.20;;;30.00;99.90;;;;;;5075183;28;20471;-74
2022/08/04 09:55:07;;;;;;;5.17;4.67;;;30.10;99.90;;;;;;5075190;28;20429;-74
2022/08/04 09:57:46;;;;;;;8.37;4.73;;;30.20;99.90;;;;;;5074966;28;20433;-75
2022/08/04 10:00:19;;;;;;;9.03;5.43;;;30.40;99.90;;;;;;5075488;28;20484;-75
2022/08/04 10:02:51;;;;;;;5.40;4.90;;;30.50;99.90;;;;;;5075078;28;20452;-75
2022/08/04 10:05:23;;;;;;;5.60;5.10;;;30.50;99.90;;;;;;5074466;28;20804;-76
2022/08/04 10:08:07;;;;;;;8.40;6.63;;;30.60;99.90;;;;;;5074501;28;20486;-76
2022/08/04 10:10:38;;;;;;;5.67;4.90;;;30.70;99.90;;;;;;5073954;28;21006;-75
2022/08/04 10:13:17;;;;;;;5.50;5.00;;;30.70;99.90;;;;;;5075030;28;20476;-75
2022/08/04 10:15:53;;;;;;;6.23;5.83;;;30.70;99.90;;;;;;5074392;28;20903;-75
2022/08/04 10:18:45;;;;;;;5.00;4.60;;;30.80;99.90;;;;;;5074235;28;20433;-76
2022/08/04 10:21:22;;;;;;;6.43;4.70;;;30.10;99.90;;;;;;5073906;28;20576;-75
2022/08/04 10:24:01;;;;;;;5.43;4.50;;;30.70;99.90;;;;;;5074317;28;20784;-75
2022/08/04 10:26:41;;;;;;;5.17;4.30;;;30.70;99.90;;;;;;5074037;28;20429;-75
2022/08/04 10:29:13;;;;;;;5.23;4.83;;;30.80;99.90;;;;;;5074067;28;20786;-75
2022/08/04 10:31:46;;;;;;;12.10;5.03;;;30.90;99.90;;;;;;5074339;28;20464;-75
2022/08/04 10:34:17;;;;;;;4.73;4.17;;;31.00;99.90;;;;;;5074146;28;20430;-75
2022/08/04 10:36:51;;;;;;;5.37;4.37;;;30.90;99.90;;;;;;5073876;28;20429;-74
2022/08/04 10:39:25;;;;;;;5.07;4.67;;;30.90;99.90;;;;;;5073782;28;20507;-76
2022/08/04 10:41:56;;;;;;;5.40;4.90;;;30.90;99.90;;;;;;5072767;28;20484;-76
2022/08/04 10:44:32;;;;;;;4.93;4.63;;;31.00;99.90;;;;;;5073435;28;20483;-74
2022/08/04 10:47:04;;;;;;;4.63;4.23;;;31.00;99.90;;;;;;5073767;28;20425;-74
2022/08/04 10:49:35;;;;;;;5.00;4.60;;;31.00;99.90;;;;;;5073434;28;20463;-76
2022/08/04 10:52:07;;;;;;;6.50;5.97;;;31.10;99.90;;;;;;5073084;28;20460;-75
2022/08/04 10:54:44;;;;;;;12.07;9.60;;;31.10;99.90;;;;;;5073421;28;20477;-75
2022/08/04 10:57:14;;;;;;;17.97;16.30;;;31.20;99.90;;;;;;5073790;28;20433;-74
2022/08/04 10:59:49;;;;;;;13.10;11.30;;;31.40;99.90;;;;;;5073570;28;20444;-74
2022/08/04 11:02:28;;;;;;;10.27;8.77;;;31.50;99.90;;;;;;5073391;28;20467;-75
2022/08/04 11:05:03;;;;;;;7.30;6.70;;;31.50;99.90;;;;;;5073555;28;20487;-74
2022/08/04 11:07:32;;;;;;;21.93;19.87;;;31.60;99.90;;;;;;5073598;28;20424;-74
2022/08/04 11:09:59;;;;;;;6.73;6.13;;;31.90;99.90;;;;;;5073001;28;20449;-74
2022/08/04 11:12:28;;;;;;;8.80;8.00;;;31.70;99.90;;;;;;5073273;28;20860;-74
2022/08/04 11:14:59;;;;;;;4.40;4.10;;;31.70;99.90;;;;;;5073206;28;20473;-74
2022/08/04 11:17:32;;;;;;;25.57;22.90;;;31.80;99.90;;;;;;5073319;28;20425;-74
2022/08/04 11:20:03;;;;;;;17.47;15.83;;;31.90;99.90;;;;;;5073225;28;20504;-74
2022/08/04 11:22:31;;;;;;;8.20;7.50;;;32.00;99.90;;;;;;5072944;28;20469;-75
2022/08/04 11:25:08;;;;;;;33.87;30.20;;;32.00;99.90;;;;;;5072935;28;20535;-74
2022/08/04 11:27:43;;;;;;;19.13;17.43;;;32.00;99.90;;;;;;5073018;28;20440;-74
2022/08/04 11:30:12;;;;;;;7.70;7.00;;;32.00;99.90;;;;;;5072960;28;20521;-74
2022/08/04 11:32:45;;;;;;;9.40;6.23;;;32.10;99.90;;;;;;5072713;28;20951;-74
2022/08/04 11:35:19;;;;;;;11.67;4.33;;;32.20;99.90;;;;;;5073067;28;20429;-75
2022/08/04 11:37:49;;;;;;;11.93;10.80;;;32.20;99.90;;;;;;5072783;28;20796;-74
2022/08/04 11:40:29;;;;;;;8.03;7.33;;;32.20;99.90;;;;;;5072503;28;20465;-74
2022/08/04 11:43:02;;;;;;;7.67;6.27;;;32.20;99.90;;;;;;5072786;28;20433;-74
2022/08/04 11:45:37;;;;;;;9.27;8.37;;;32.20;99.90;;;;;;5072670;28;20444;-74
2022/08/04 11:48:10;;;;;;;6.93;6.23;;;32.30;99.90;;;;;;5072885;28;20428;-74
2022/08/04 11:50:40;;;;;;;5.60;5.10;;;32.20;99.90;;;;;;5072604;28;20464;-74
2022/08/04 11:53:08;;;;;;;5.80;5.30;;;32.20;99.90;;;;;;5074158;28;20468;-74
2022/08/04 11:55:38;;;;;;;4.57;4.17;;;32.10;99.90;;;;;;5076759;28;20460;-73
2022/08/04 11:58:05;;;;;;;5.17;4.77;;;32.10;99.90;;;;;;5076662;28;20484;-74
2022/08/04 12:00:34;;;;;;;5.93;5.53;;;32.10;99.90;;;;;;5076719;28;20468;-74
2022/08/04 12:03:16;;;;;;;4.93;3.33;;;32.20;99.90;;;;;;5076447;28;20448;-75
2022/08/04 12:05:51;;;;;;;5.70;4.33;;;32.20;99.90;;;;;;5076794;28;20424;-75
2022/08/04 12:08:29;;;;;;;5.13;4.53;;;32.30;99.90;;;;;;5077511;28;20439;-74
2022/08/04 12:11:07;;;;;;;4.13;3.83;;;32.40;99.90;;;;;;5100808;22;20495;-75
2022/08/04 12:13:42;;;;;;;4.40;4.10;;;32.50;99.90;;;;;;5076758;28;20448;-76
2022/08/04 12:16:16;;;;;;;4.63;4.23;;;32.60;99.90;;;;;;5076677;28;20436;-76
2022/08/04 12:18:51;;;;;;;4.83;4.53;;;32.70;99.90;;;;;;5076512;28;20433;-75
2022/08/04 12:21:29;;;;;;;5.03;4.63;;;32.70;99.90;;;;;;5076858;28;20897;-75
2022/08/04 12:24:01;;;;;;;9.43;4.63;;;32.80;99.90;;;;;;5076602;28;20428;-76
2022/08/04 12:26:34;;;;;;;5.67;5.17;;;32.90;99.90;;;;;;5076375;28;20841;-75
2022/08/04 12:29:03;;;;;;;5.03;4.50;;;33.00;99.90;;;;;;5076903;28;20443;-75
2022/08/04 12:31:36;;;;;;;5.00;4.60;;;33.10;99.90;;;;;;5076533;28;20460;-77
2022/08/04 12:34:08;;;;;;;5.57;5.07;;;33.20;99.90;;;;;;5076455;28;20429;-76
2022/08/04 12:36:43;;;;;;;5.03;4.53;;;33.20;99.90;;;;;;5076560;28;20441;-76
2022/08/04 12:39:15;;;;;;;6.37;4.67;;;33.30;99.90;;;;;;5076183;28;20475;-75
2022/08/04 12:41:48;;;;;;;7.93;4.10;;;33.30;99.90;;;;;;5076305;28;20484;-75
2022/08/04 12:44:15;;;;;;;4.80;4.40;;;33.20;99.90;;;;;;5076175;28;20953;-75
2022/08/04 12:46:46;;;;;;;4.80;4.30;;;33.40;99.90;;;;;;5076254;28;20448;-75
2022/08/04 12:49:15;;;;;;;10.00;5.07;;;33.40;99.90;;;;;;5076501;28;20459;-76
2022/08/04 12:51:45;;;;;;;3.60;3.40;;;33.40;99.90;;;;;;5076173;28;20839;-76
2022/08/04 12:54:14;;;;;;;6.37;3.90;;;33.30;99.90;;;;;;5075967;28;20456;-76
2022/08/04 12:56:42;;;;;;;5.20;4.70;;;33.30;99.90;;;;;;5075935;28;20954;-75
2022/08/04 12:59:12;;;;;;;7.33;4.53;;;33.30;99.90;;;;;;5076177;28;20471;-76
2022/08/04 13:01:40;;;;;;;6.40;4.90;;;33.40;99.90;;;;;;5075935;28;20488;-76
2022/08/04 13:04:15;;;;;;;6.73;4.90;;;33.40;99.90;;;;;;5074657;28;20448;-75
2022/08/04 13:06:45;;;;;;;3.83;3.53;;;33.40;99.90;;;;;;5075834;28;20436;-76
2022/08/04 13:09:16;;;;;;;3.80;3.53;;;33.50;99.90;;;;;;5075688;28;20449;-76
2022/08/04 13:11:49;;;;;;;5.67;4.00;;;33.40;99.90;;;;;;5075547;28;20860;-76
2022/08/04 13:14:16;;;;;;;5.17;4.77;;;33.30;99.90;;;;;;5076429;28;20777;-77
2022/08/04 13:16:43;;;;;;;4.20;3.90;;;33.20;99.90;;;;;;5077131;28;20476;-75
2022/08/04 13:19:11;;;;;;;7.50;5.17;;;33.30;99.90;;;;;;5076143;28;20449;-75
2022/08/04 13:21:43;;;;;;;5.30;4.80;;;33.20;99.90;;;;;;5076337;28;20499;-75
2022/08/04 13:24:13;;;;;;;3.27;3.00;;;33.30;99.90;;;;;;5076100;28;20460;-76
2022/08/04 13:26:50;;;;;;;6.97;4.47;;;33.30;99.90;;;;;;5076422;28;20449;-75